EET,Max TemperatureF,Mean TemperatureF,Min TemperatureF,Max Dew PointF,MeanDew PointF,Min DewpointF,Max Humidity, Mean Humidity, Min Humidity, Max Sea Level PressureIn, Mean Sea Level PressureIn, Min Sea Level PressureIn, Max VisibilityMiles, Mean VisibilityMiles, Min VisibilityMiles, Max Wind SpeedMPH, Mean Wind SpeedMPH, Max Gust SpeedMPH,PrecipitationIn, CloudCover, Events, WindDirDegrees
2012-3-1,57,54,50,48,43,34,88,71,54,29.95,29.82,29.71,6,6,4,28,17,,0.00,3,,300
2012-3-2,57,52,46,45,40,36,76,65,55,30.15,30.04,29.95,6,6,6,23,16,,0.00,3,,307
2012-3-3,62,56,51,54,46,39,88,69,54,30.18,30.15,30.12,6,6,4,17,11,,0.00,3,Rain,284
2012-3-4,66,60,53,57,54,50,94,83,73,30.15,30.11,30.09,6,6,6,15,10,,0.00,3,,269
2012-3-5,66,55,44,54,50,45,100,82,60,30.15,30.12,30.09,6,3,1,7,3,,0.00,2,,92
2012-3-6,66,56,46,55,51,34,94,79,32,30.18,30.12,30.06,4,4,4,10,3,,0.00,1,,339
2012-3-7,71,60,50,59,53,46,94,80,60,30.21,30.18,30.15,6,6,4,9,2,,0.00,3,,33
2012-3-8,68,60,51,54,51,48,94,75,56,30.18,30.17,30.15,6,6,6,12,6,,0.00,1,,36
2012-3-9,68,59,50,55,52,48,94,77,59,30.21,30.18,30.12,6,6,6,16,8,,0.00,2,,48
2012-3-10,75,65,55,57,53,43,94,69,35,30.18,30.06,29.98,6,6,6,15,8,,0.00,3,,73
2012-3-11,82,68,55,63,56,52,88,69,48,29.95,29.77,29.62,6,6,4,20,9,,0.00,5,,106
2012-3-12,73,64,55,54,49,45,77,56,36,29.86,29.78,29.71,6,3,1,20,11,,0.00,6,,256
2012-3-13,71,62,53,54,47,39,88,63,38,30.04,29.92,29.86,4,4,1,22,8,,0.00,2,,259
2012-3-14,64,60,57,52,47,43,72,62,55,30.15,30.06,29.98,6,6,6,20,12,,0.00,3,,268
2012-3-15,62,58,55,48,47,45,77,66,55,30.18,30.14,30.12,6,6,6,24,14,,0.00,4,,295
2012-3-16,64,60,53,50,46,41,67,61,52,30.30,30.20,30.15,6,6,6,20,13,,0.00,3,,318
2012-3-17,62,58,53,41,39,36,62,51,42,30.39,30.35,30.27,6,6,6,14,10,,0.00,3,,13
2012-3-18,64,55,46,46,44,41,82,65,49,30.42,30.38,30.36,6,6,6,15,6,,0.00,2,,53
2012-3-19,64,58,51,46,45,43,82,62,49,30.36,30.31,30.27,6,6,6,15,9,,0.00,2,,37
2012-3-20,66,62,57,52,49,46,77,64,52,30.30,30.27,30.24,6,6,6,16,10,,0.00,3,,6
2012-3-21,68,62,55,57,54,48,88,75,64,30.27,30.21,30.18,6,6,6,12,9,,0.00,3,,353
2012-3-22,69,60,50,55,53,46,94,78,56,30.18,30.15,30.12,4,4,4,12,5,,0.00,1,,347
2012-3-23,73,63,53,57,52,46,94,73,41,30.15,30.13,30.09,6,6,6,14,6,,0.00,1,,8
2012-3-24,71,63,55,57,53,52,88,72,50,30.15,30.10,30.06,,,,13,6,,0.00,,,5
2012-3-25,68,62,57,55,54,52,88,75,60,30.12,30.08,30.04,6,6,6,13,8,,0.00,2,,339
2012-3-26,66,62,59,55,52,48,82,69,56,30.06,30.04,30.04,6,6,6,13,8,,0.00,2,,309
2012-3-27,68,62,57,55,54,50,82,73,60,30.04,30.01,29.98,6,6,6,15,10,,0.00,2,,306
2012-3-28,68,64,53,55,52,50,94,70,52,30.06,30.04,30.01,,,,15,10,,0.00,,,315
2012-3-29,68,58,48,54,49,45,100,73,49,30.06,30.03,30.01,6,6,4,13,4,,0.00,2,Rain-Thunderstorm,296
2012-3-30,66,58,51,46,45,41,76,59,46,30.06,30.05,30.01,6,6,6,12,5,,0.00,1,,321
2012-3-31,77,62,46,52,48,45,93,66,34,30.04,29.96,29.89,6,5,2,8,3,,0.00,4,,112